sensor_id;sensor_type;location;lat;lon;timestamp;temperature;humidity
19000;DHT22;9633;50.980;13.850;2024-03-02T00:01:19;8.20;99.90
19000;DHT22;9633;50.980;13.850;2024-03-02T00:02:52;8.20;99.90
19000;DHT22;9633;50.980;13.850;2024-03-02T00:04:25;8.30;99.90
19000;DHT22;9633;50.980;13.850;2024-03-02T00:05:58;8.20;99.90
19000;DHT22;9633;50.980;13.850;2024-03-02T00:07:30;8.20;99.90
19000;DHT22;9633;50.980;13.850;2024-03-02T00:09:06;8.30;99.90
19000;DHT22;9633;50.980;13.850;2024-03-02T00:10:43;8.30;99.90
19000;DHT22;9633;50.980;13.850;2024-03-02T00:12:15;8.30;99.90
19000;DHT22;9633;50.980;13.850;2024-03-02T00:13:49;8.30;99.90
19000;DHT22;9633;50.980;13.850;2024-03-02T00:15:40;8.30;99.90
19000;DHT22;9633;50.980;13.850;2024-03-02T00:17:21;8.30;99.90
19000;DHT22;9633;50.980;13.850;2024-03-02T00:19:01;8.30;99.90
19000;DHT22;9633;50.980;13.850;2024-03-02T00:20:33;8.20;99.90
19000;DHT22;9633;50.980;13.850;2024-03-02T00:22:07;8.20;99.90
19000;DHT22;9633;50.980;13.850;2024-03-02T00:23:40;8.20;99.90
19000;DHT22;9633;50.980;13.850;2024-03-02T00:25:15;8.20;99.90
19000;DHT22;9633;50.980;13.850;2024-03-02T00:26:47;8.20;99.90
19000;DHT22;9633;50.980;13.850;2024-03-02T00:28:22;8.20;99.90
19000;DHT22;9633;50.980;13.850;2024-03-02T00:29:56;8.20;99.90
19000;DHT22;9633;50.980;13.850;2024-03-02T00:31:29;8.30;99.90
19000;DHT22;9633;50.980;13.850;2024-03-02T00:33:02;8.30;99.90
19000;DHT22;9633;50.980;13.850;2024-03-02T00:34:39;8.30;99.90
19000;DHT22;9633;50.980;13.850;2024-03-02T00:36:13;8.30;99.90
19000;DHT22;9633;50.980;13.850;2024-03-02T00:37:46;8.30;99.90
19000;DHT22;9633;50.980;13.850;2024-03-02T00:39:19;8.30;99.90
19000;DHT22;9633;50.980;13.850;2024-03-02T00:40:54;8.30;99.90
19000;DHT22;9633;50.980;13.850;2024-03-02T00:42:26;8.30;99.90
19000;DHT22;9633;50.980;13.850;2024-03-02T00:44:00;8.30;99.90
19000;DHT22;9633;50.980;13.850;2024-03-02T00:45:33;8.30;99.90
19000;DHT22;9633;50.980;13.850;2024-03-02T00:47:07;8.40;99.90
19000;DHT22;9633;50.980;13.850;2024-03-02T00:48:48;8.40;99.90
19000;DHT22;9633;50.980;13.850;2024-03-02T00:50:20;8.40;99.90
19000;DHT22;9633;50.980;13.850;2024-03-02T00:52:02;8.40;99.90
19000;DHT22;9633;50.980;13.850;2024-03-02T00:53:35;8.40;99.90
19000;DHT22;9633;50.980;13.850;2024-03-02T00:55:08;8.40;99.90
19000;DHT22;9633;50.980;13.850;2024-03-02T00:56:43;8.30;99.90
19000;DHT22;9633;50.980;13.850;2024-03-02T00:58:15;8.30;99.90
19000;DHT22;9633;50.980;13.850;2024-03-02T00:59:48;8.30;99.90
19000;DHT22;9633;50.980;13.850;2024-03-02T01:01:22;8.30;99.90
19000;DHT22;9633;50.980;13.850;2024-03-02T01:02:54;8.30;99.90
19000;DHT22;9633;50.980;13.850;2024-03-02T01:04:27;8.40;99.90
19000;DHT22;9633;50.980;13.850;2024-03-02T01:06:00;8.40;99.90
19000;DHT22;9633;50.980;13.850;2024-03-02T01:07:34;8.40;99.90
19000;DHT22;9633;50.980;13.850;2024-03-02T01:09:07;8.40;99.90
19000;DHT22;9633;50.980;13.850;2024-03-02T01:10:39;8.40;99.90
19000;DHT22;9633;50.980;13.850;2024-03-02T01:12:14;8.40;99.90
19000;DHT22;9633;50.980;13.850;2024-03-02T01:13:46;8.30;99.90
19000;DHT22;9633;50.980;13.850;2024-03-02T01:15:19;8.40;99.90
19000;DHT22;9633;50.980;13.850;2024-03-02T01:16:51;8.30;99.90
19000;DHT22;9633;50.980;13.850;2024-03-02T01:18:25;8.30;99.90
19000;DHT22;9633;50.980;13.850;2024-03-02T01:19:57;8.30;99.90
19000;DHT22;9633;50.980;13.850;2024-03-02T01:21:30;8.30;99.90
19000;DHT22;9633;50.980;13.850;2024-03-02T01:23:03;8.20;99.90
19000;DHT22;9633;50.980;13.850;2024-03-02T01:24:36;8.30;99.90
19000;DHT22;9633;50.980;13.850;2024-03-02T01:26:09;8.30;99.90
19000;DHT22;9633;50.980;13.850;2024-03-02T01:27:42;8.40;99.90
19000;DHT22;9633;50.980;13.850;2024-03-02T01:29:19;8.40;99.90
19000;DHT22;9633;50.980;13.850;2024-03-02T01:30:52;8.40;99.90
19000;DHT22;9633;50.980;13.850;2024-03-02T01:32:24;8.40;99.90
19000;DHT22;9633;50.980;13.850;2024-03-02T01:33:57;8.40;99.90
19000;DHT22;9633;50.980;13.850;2024-03-02T01:35:30;8.40;99.90
19000;DHT22;9633;50.980;13.850;2024-03-02T01:37:02;8.40;99.90
19000;DHT22;9633;50.980;13.850;2024-03-02T01:38:36;8.40;99.90
19000;DHT22;9633;50.980;13.850;2024-03-02T01:40:10;8.40;99.90
19000;DHT22;9633;50.980;13.850;2024-03-02T01:41:42;8.40;99.90
19000;DHT22;9633;50.980;13.850;2024-03-02T01:43:17;8.40;99.90
19000;DHT22;9633;50.980;13.850;2024-03-02T01:44:49;8.40;99.90
19000;DHT22;9633;50.980;13.850;2024-03-02T01:46:22;8.40;99.90
19000;DHT22;9633;50.980;13.850;2024-03-02T01:47:56;8.50;99.90
19000;DHT22;9633;50.980;13.850;2024-03-02T01:49:28;8.50;99.90
19000;DHT22;9633;50.980;13.850;2024-03-02T01:51:01;8.50;99.90
19000;DHT22;9633;50.980;13.850;2024-03-02T01:52:33;8.50;99.90
19000;DHT22;9633;50.980;13.850;2024-03-02T01:54:06;8.50;99.90
19000;DHT22;9633;50.980;13.850;2024-03-02T01:55:38;8.50;99.90
19000;DHT22;9633;50.980;13.850;2024-03-02T01:57:12;8.50;99.90
19000;DHT22;9633;50.980;13.850;2024-03-02T01:58:45;8.40;99.90
19000;DHT22;9633;50.980;13.850;2024-03-02T02:00:19;8.40;99.90
19000;DHT22;9633;50.980;13.850;2024-03-02T02:01:52;8.40;99.90
19000;DHT22;9633;50.980;13.850;2024-03-02T02:03:25;8.40;99.90
19000;DHT22;9633;50.980;13.850;2024-03-02T02:04:58;8.40;99.90
19000;DHT22;9633;50.980;13.850;2024-03-02T02:06:31;8.40;99.90
19000;DHT22;9633;50.980;13.850;2024-03-02T02:08:04;8.40;99.90
19000;DHT22;9633;50.980;13.850;2024-03-02T02:09:37;8.40;99.90
19000;DHT22;9633;50.980;13.850;2024-03-02T02:11:10;8.40;99.90
19000;DHT22;9633;50.980;13.850;2024-03-02T02:12:43;8.40;99.90
19000;DHT22;9633;50.980;13.850;2024-03-02T02:14:17;8.40;99.90
19000;DHT22;9633;50.980;13.850;2024-03-02T02:15:50;8.40;99.90
19000;DHT22;9633;50.980;13.850;2024-03-02T02:17:24;8.40;99.90
19000;DHT22;9633;50.980;13.850;2024-03-02T02:18:57;8.40;99.90
19000;DHT22;9633;50.980;13.850;2024-03-02T02:20:30;8.40;99.90
19000;DHT22;9633;50.980;13.850;2024-03-02T02:22:04;8.50;99.90
19000;DHT22;9633;50.980;13.850;2024-03-02T02:23:36;8.60;99.90
19000;DHT22;9633;50.980;13.850;2024-03-02T02:25:10;8.60;99.90
19000;DHT22;9633;50.980;13.850;2024-03-02T02:26:42;8.60;99.90
19000;DHT22;9633;50.980;13.850;2024-03-02T02:28:15;8.60;99.90
19000;DHT22;9633;50.980;13.850;2024-03-02T02:29:48;8.50;99.90
19000;DHT22;9633;50.980;13.850;2024-03-02T02:31:20;8.60;99.90
19000;DHT22;9633;50.980;13.850;2024-03-02T02:32:54;8.60;99.90
19000;DHT22;9633;50.980;13.850;2024-03-02T02:34:26;8.60;99.90
19000;DHT22;9633;50.980;13.850;2024-03-02T02:36:00;8.50;99.90
19000;DHT22;9633;50.980;13.850;2024-03-02T02:37:33;8.50;99.90
19000;DHT22;9633;50.980;13.850;2024-03-02T02:39:10;8.50;99.90
19000;DHT22;9633;50.980;13.850;2024-03-02T02:40:44;8.50;99.90
19000;DHT22;9633;50.980;13.850;2024-03-02T02:42:17;8.40;99.90
19000;DHT22;9633;50.980;13.850;2024-03-02T02:43:50;8.40;99.90
19000;DHT22;9633;50.980;13.850;2024-03-02T02:45:23;8.40;99.90
19000;DHT22;9633;50.980;13.850;2024-03-02T02:46:56;8.40;99.90
19000;DHT22;9633;50.980;13.850;2024-03-02T02:48:29;8.40;99.90
19000;DHT22;9633;50.980;13.850;2024-03-02T02:50:02;8.40;99.90
19000;DHT22;9633;50.980;13.850;2024-03-02T02:51:35;8.40;99.90
19000;DHT22;9633;50.980;13.850;2024-03-02T02:53:10;8.40;99.90
19000;DHT22;9633;50.980;13.850;2024-03-02T02:54:43;8.40;99.90
19000;DHT22;9633;50.980;13.850;2024-03-02T02:56:15;8.40;99.90
19000;DHT22;9633;50.980;13.850;2024-03-02T02:57:49;8.40;99.90
19000;DHT22;9633;50.980;13.850;2024-03-02T02:59:22;8.30;99.90
19000;DHT22;9633;50.980;13.850;2024-03-02T03:00:54;8.30;99.90
19000;DHT22;9633;50.980;13.850;2024-03-02T03:02:29;8.30;99.90
19000;DHT22;9633;50.980;13.850;2024-03-02T03:04:01;8.30;99.90
19000;DHT22;9633;50.980;13.850;2024-03-02T03:05:34;8.30;99.90
19000;DHT22;9633;50.980;13.850;2024-03-02T03:07:06;8.40;99.90
19000;DHT22;9633;50.980;13.850;2024-03-02T03:08:40;8.50;99.90
19000;DHT22;9633;50.980;13.850;2024-03-02T03:10:13;8.50;99.90
19000;DHT22;9633;50.980;13.850;2024-03-02T03:11:47;8.50;99.90
19000;DHT22;9633;50.980;13.850;2024-03-02T03:13:19;8.50;99.90
19000;DHT22;9633;50.980;13.850;2024-03-02T03:14:52;8.50;99.90
19000;DHT22;9633;50.980;13.850;2024-03-02T03:16:25;8.50;99.90
19000;DHT22;9633;50.980;13.850;2024-03-02T03:17:58;8.50;99.90
19000;DHT22;9633;50.980;13.850;2024-03-02T03:19:30;8.50;99.90
19000;DHT22;9633;50.980;13.850;2024-03-02T03:21:03;8.50;99.90
19000;DHT22;9633;50.980;13.850;2024-03-02T03:22:37;8.40;99.90
19000;DHT22;9633;50.980;13.850;2024-03-02T03:24:24;8.40;99.90
19000;DHT22;9633;50.980;13.850;2024-03-02T03:25:57;8.30;99.90
19000;DHT22;9633;50.980;13.850;2024-03-02T03:27:30;8.30;99.90
19000;DHT22;9633;50.980;13.850;2024-03-02T03:29:02;8.30;99.90
19000;DHT22;9633;50.980;13.850;2024-03-02T03:30:36;8.30;99.90
19000;DHT22;9633;50.980;13.850;2024-03-02T03:32:08;8.30;99.90
19000;DHT22;9633;50.980;13.850;2024-03-02T03:33:41;8.30;99.90
19000;DHT22;9633;50.980;13.850;2024-03-02T03:35:14;8.30;99.90
19000;DHT22;9633;50.980;13.850;2024-03-02T03:36:47;8.30;99.90
19000;DHT22;9633;50.980;13.850;2024-03-02T03:38:20;8.30;99.90
19000;DHT22;9633;50.980;13.850;2024-03-02T03:39:55;8.30;99.90
19000;DHT22;9633;50.980;13.850;2024-03-02T03:41:27;8.30;99.90
19000;DHT22;9633;50.980;13.850;2024-03-02T03:43:00;8.30;99.90
19000;DHT22;9633;50.980;13.850;2024-03-02T03:44:32;8.30;99.90
19000;DHT22;9633;50.980;13.850;2024-03-02T03:46:05;8.30;99.90
19000;DHT22;9633;50.980;13.850;2024-03-02T03:47:38;8.40;99.90
19000;DHT22;9633;50.980;13.850;2024-03-02T03:49:11;8.40;99.90
19000;DHT22;9633;50.980;13.850;2024-03-02T03:50:43;8.40;99.90
19000;DHT22;9633;50.980;13.850;2024-03-02T03:52:16;8.50;99.90
19000;DHT22;9633;50.980;13.850;2024-03-02T03:53:48;8.50;99.90
19000;DHT22;9633;50.980;13.850;2024-03-02T03:55:23;8.50;99.90
19000;DHT22;9633;50.980;13.850;2024-03-02T03:56:56;8.50;99.90
19000;DHT22;9633;50.980;13.850;2024-03-02T03:58:29;8.50;99.90
19000;DHT22;9633;50.980;13.850;2024-03-02T04:00:02;8.50;99.90
19000;DHT22;9633;50.980;13.850;2024-03-02T04:01:42;8.50;99.90
19000;DHT22;9633;50.980;13.850;2024-03-02T04:03:16;8.50;99.90
19000;DHT22;9633;50.980;13.850;2024-03-02T04:04:48;8.50;99.90
19000;DHT22;9633;50.980;13.850;2024-03-02T04:06:21;8.50;99.90
19000;DHT22;9633;50.980;13.850;2024-03-02T04:07:54;8.60;99.90
19000;DHT22;9633;50.980;13.850;2024-03-02T04:09:27;8.60;99.90
19000;DHT22;9633;50.980;13.850;2024-03-02T04:11:00;8.60;99.90
19000;DHT22;9633;50.980;13.850;2024-03-02T04:12:35;8.60;99.90
19000;DHT22;9633;50.980;13.850;2024-03-02T04:14:07;8.60;99.90
19000;DHT22;9633;50.980;13.850;2024-03-02T04:15:41;8.70;99.90
19000;DHT22;9633;50.980;13.850;2024-03-02T04:17:14;8.60;99.90
19000;DHT22;9633;50.980;13.850;2024-03-02T04:18:47;8.70;99.90
19000;DHT22;9633;50.980;13.850;2024-03-02T04:20:19;8.70;99.90
19000;DHT22;9633;50.980;13.850;2024-03-02T04:21:52;8.60;99.90
19000;DHT22;9633;50.980;13.850;2024-03-02T04:23:25;8.60;99.90
19000;DHT22;9633;50.980;13.850;2024-03-02T04:24:58;8.60;99.90
19000;DHT22;9633;50.980;13.850;2024-03-02T04:26:32;8.60;99.90
19000;DHT22;9633;50.980;13.850;2024-03-02T04:28:05;8.60;99.90
19000;DHT22;9633;50.980;13.850;2024-03-02T04:29:38;8.60;99.90
19000;DHT22;9633;50.980;13.850;2024-03-02T04:31:10;8.60;99.90
19000;DHT22;9633;50.980;13.850;2024-03-02T04:32:43;8.60;99.90
19000;DHT22;9633;50.980;13.850;2024-03-02T04:34:18;8.60;99.90
19000;DHT22;9633;50.980;13.850;2024-03-02T04:35:51;8.60;99.90
19000;DHT22;9633;50.980;13.850;2024-03-02T04:37:23;8.60;99.90
19000;DHT22;9633;50.980;13.850;2024-03-02T04:38:56;8.60;99.90
19000;DHT22;9633;50.980;13.850;2024-03-02T04:40:29;8.60;99.90
19000;DHT22;9633;50.980;13.850;2024-03-02T04:42:03;8.60;99.90
19000;DHT22;9633;50.980;13.850;2024-03-02T04:43:36;8.60;99.90
19000;DHT22;9633;50.980;13.850;2024-03-02T04:45:09;8.60;99.90
19000;DHT22;9633;50.980;13.850;2024-03-02T04:46:41;8.60;99.90
19000;DHT22;9633;50.980;13.850;2024-03-02T04:48:14;8.60;99.90
19000;DHT22;9633;50.980;13.850;2024-03-02T04:49:47;8.60;99.90
19000;DHT22;9633;50.980;13.850;2024-03-02T04:51:20;8.50;99.90
19000;DHT22;9633;50.980;13.850;2024-03-02T04:52:52;8.60;99.90
19000;DHT22;9633;50.980;13.850;2024-03-02T04:54:25;8.50;99.90
19000;DHT22;9633;50.980;13.850;2024-03-02T04:55:57;8.60;99.90
19000;DHT22;9633;50.980;13.850;2024-03-02T04:57:53;8.60;99.90
19000;DHT22;9633;50.980;13.850;2024-03-02T04:59:27;8.60;99.90
19000;DHT22;9633;50.980;13.850;2024-03-02T05:01:00;8.60;99.90
19000;DHT22;9633;50.980;13.850;2024-03-02T05:02:32;8.50;99.90
19000;DHT22;9633;50.980;13.850;2024-03-02T05:04:05;8.50;99.90
19000;DHT22;9633;50.980;13.850;2024-03-02T05:05:37;8.50;99.90
19000;DHT22;9633;50.980;13.850;2024-03-02T05:07:10;8.50;99.90
19000;DHT22;9633;50.980;13.850;2024-03-02T05:08:44;8.50;99.90
19000;DHT22;9633;50.980;13.850;2024-03-02T05:10:16;8.50;99.90
19000;DHT22;9633;50.980;13.850;2024-03-02T05:11:49;8.50;99.90
19000;DHT22;9633;50.980;13.850;2024-03-02T05:13:41;8.50;99.90
19000;DHT22;9633;50.980;13.850;2024-03-02T05:15:14;8.50;99.90
19000;DHT22;9633;50.980;13.850;2024-03-02T05:16:47;8.50;99.90
19000;DHT22;9633;50.980;13.850;2024-03-02T05:18:20;8.50;99.90
19000;DHT22;9633;50.980;13.850;2024-03-02T05:19:52;8.50;99.90
19000;DHT22;9633;50.980;13.850;2024-03-02T05:21:26;8.60;99.90
19000;DHT22;9633;50.980;13.850;2024-03-02T05:22:58;8.60;99.90
19000;DHT22;9633;50.980;13.850;2024-03-02T05:24:31;8.70;99.90
19000;DHT22;9633;50.980;13.850;2024-03-02T05:26:03;8.80;99.90
19000;DHT22;9633;50.980;13.850;2024-03-02T05:27:36;8.80;99.90
19000;DHT22;9633;50.980;13.850;2024-03-02T05:29:10;8.90;99.90
19000;DHT22;9633;50.980;13.850;2024-03-02T05:30:43;8.90;99.90
19000;DHT22;9633;50.980;13.850;2024-03-02T05:32:15;8.90;99.90
19000;DHT22;9633;50.980;13.850;2024-03-02T05:33:49;8.90;99.90
19000;DHT22;9633;50.980;13.850;2024-03-02T05:35:25;8.90;99.90
19000;DHT22;9633;50.980;13.850;2024-03-02T05:36:58;8.90;99.90
19000;DHT22;9633;50.980;13.850;2024-03-02T05:38:30;9.00;99.90
19000;DHT22;9633;50.980;13.850;2024-03-02T05:40:04;9.00;99.90
19000;DHT22;9633;50.980;13.850;2024-03-02T05:41:37;9.10;99.90
19000;DHT22;9633;50.980;13.850;2024-03-02T05:43:10;9.10;99.90
19000;DHT22;9633;50.980;13.850;2024-03-02T05:44:44;9.10;99.90
19000;DHT22;9633;50.980;13.850;2024-03-02T05:46:18;9.20;99.90
19000;DHT22;9633;50.980;13.850;2024-03-02T05:47:51;9.20;99.90
19000;DHT22;9633;50.980;13.850;2024-03-02T05:49:24;9.20;99.90
19000;DHT22;9633;50.980;13.850;2024-03-02T05:50:56;9.20;99.90
19000;DHT22;9633;50.980;13.850;2024-03-02T05:52:29;9.30;99.90
19000;DHT22;9633;50.980;13.850;2024-03-02T05:54:02;9.30;99.90
19000;DHT22;9633;50.980;13.850;2024-03-02T05:55:35;9.30;99.90
19000;DHT22;9633;50.980;13.850;2024-03-02T05:57:07;9.40;99.90
19000;DHT22;9633;50.980;13.850;2024-03-02T05:59:03;9.40;99.90
19000;DHT22;9633;50.980;13.850;2024-03-02T06:00:46;9.40;99.90
19000;DHT22;9633;50.980;13.850;2024-03-02T06:02:19;9.40;99.90
19000;DHT22;9633;50.980;13.850;2024-03-02T06:03:52;9.40;99.90
19000;DHT22;9633;50.980;13.850;2024-03-02T06:05:25;9.40;99.90
19000;DHT22;9633;50.980;13.850;2024-03-02T06:06:58;9.40;99.90
19000;DHT22;9633;50.980;13.850;2024-03-02T06:08:30;9.40;99.90
19000;DHT22;9633;50.980;13.850;2024-03-02T06:10:04;9.40;99.90
19000;DHT22;9633;50.980;13.850;2024-03-02T06:11:42;9.40;99.90
19000;DHT22;9633;50.980;13.850;2024-03-02T06:13:15;9.40;99.90
19000;DHT22;9633;50.980;13.850;2024-03-02T06:14:48;9.40;99.90
19000;DHT22;9633;50.980;13.850;2024-03-02T06:16:22;9.40;99.90
19000;DHT22;9633;50.980;13.850;2024-03-02T06:17:55;9.40;99.90
19000;DHT22;9633;50.980;13.850;2024-03-02T06:19:28;9.40;99.90
19000;DHT22;9633;50.980;13.850;2024-03-02T06:21:00;9.40;99.90
19000;DHT22;9633;50.980;13.850;2024-03-02T06:22:34;9.40;99.90
19000;DHT22;9633;50.980;13.850;2024-03-02T06:24:07;9.40;99.90
19000;DHT22;9633;50.980;13.850;2024-03-02T06:25:40;9.30;99.90
19000;DHT22;9633;50.980;13.850;2024-03-02T06:27:12;9.30;99.90
19000;DHT22;9633;50.980;13.850;2024-03-02T06:28:45;9.30;99.90
19000;DHT22;9633;50.980;13.850;2024-03-02T06:30:18;9.30;99.90
19000;DHT22;9633;50.980;13.850;2024-03-02T06:31:52;9.30;99.90
19000;DHT22;9633;50.980;13.850;2024-03-02T06:33:26;9.40;99.90
19000;DHT22;9633;50.980;13.850;2024-03-02T06:34:58;9.40;99.90
19000;DHT22;9633;50.980;13.850;2024-03-02T06:36:32;9.40;99.90
19000;DHT22;9633;50.980;13.850;2024-03-02T06:38:04;9.50;99.90
19000;DHT22;9633;50.980;13.850;2024-03-02T06:39:37;9.50;99.90
19000;DHT22;9633;50.980;13.850;2024-03-02T06:41:09;9.50;99.90
19000;DHT22;9633;50.980;13.850;2024-03-02T06:42:42;9.50;99.90
19000;DHT22;9633;50.980;13.850;2024-03-02T06:44:15;9.50;99.90
19000;DHT22;9633;50.980;13.850;2024-03-02T06:45:48;9.50;99.90
19000;DHT22;9633;50.980;13.850;2024-03-02T06:47:23;9.50;99.90
19000;DHT22;9633;50.980;13.850;2024-03-02T06:48:55;9.50;99.90
19000;DHT22;9633;50.980;13.850;2024-03-02T06:50:29;9.40;99.90
19000;DHT22;9633;50.980;13.850;2024-03-02T06:52:02;9.40;99.90
19000;DHT22;9633;50.980;13.850;2024-03-02T06:53:34;9.40;99.90
19000;DHT22;9633;50.980;13.850;2024-03-02T06:55:08;9.50;99.90
19000;DHT22;9633;50.980;13.850;2024-03-02T06:56:40;9.40;99.90
19000;DHT22;9633;50.980;13.850;2024-03-02T06:58:13;9.40;99.90
19000;DHT22;9633;50.980;13.850;2024-03-02T06:59:47;9.40;99.90
19000;DHT22;9633;50.980;13.850;2024-03-02T07:01:22;9.40;99.90
19000;DHT22;9633;50.980;13.850;2024-03-02T07:02:58;9.40;99.90
19000;DHT22;9633;50.980;13.850;2024-03-02T07:04:31;9.40;99.90
19000;DHT22;9633;50.980;13.850;2024-03-02T07:06:03;9.40;99.90
19000;DHT22;9633;50.980;13.850;2024-03-02T07:07:37;9.40;99.90
19000;DHT22;9633;50.980;13.850;2024-03-02T07:09:09;9.30;99.90
19000;DHT22;9633;50.980;13.850;2024-03-02T07:10:43;9.30;99.90
19000;DHT22;9633;50.980;13.850;2024-03-02T07:12:16;9.30;99.90
19000;DHT22;9633;50.980;13.850;2024-03-02T07:13:48;9.20;99.90
19000;DHT22;9633;50.980;13.850;2024-03-02T07:15:22;9.20;99.90
19000;DHT22;9633;50.980;13.850;2024-03-02T07:17:08;9.20;99.90
19000;DHT22;9633;50.980;13.850;2024-03-02T07:18:45;9.20;99.90
19000;DHT22;9633;50.980;13.850;2024-03-02T07:20:23;9.20;99.90
19000;DHT22;9633;50.980;13.850;2024-03-02T07:21:56;9.20;99.90
19000;DHT22;9633;50.980;13.850;2024-03-02T07:23:28;9.20;99.90
19000;DHT22;9633;50.980;13.850;2024-03-02T07:25:02;9.30;99.90
19000;DHT22;9633;50.980;13.850;2024-03-02T07:26:35;9.30;99.90
19000;DHT22;9633;50.980;13.850;2024-03-02T07:28:11;9.30;99.90
19000;DHT22;9633;50.980;13.850;2024-03-02T07:29:43;9.30;99.90
19000;DHT22;9633;50.980;13.850;2024-03-02T07:31:17;9.30;99.90
19000;DHT22;9633;50.980;13.850;2024-03-02T07:32:50;9.30;99.90
19000;DHT22;9633;50.980;13.850;2024-03-02T07:34:24;9.30;99.90
19000;DHT22;9633;50.980;13.850;2024-03-02T07:35:58;9.30;99.90
19000;DHT22;9633;50.980;13.850;2024-03-02T07:37:34;9.30;99.90
19000;DHT22;9633;50.980;13.850;2024-03-02T07:39:07;9.30;99.90
19000;DHT22;9633;50.980;13.850;2024-03-02T07:40:39;9.30;99.90
19000;DHT22;9633;50.980;13.850;2024-03-02T07:42:12;9.30;99.90
19000;DHT22;9633;50.980;13.850;2024-03-02T07:43:44;9.30;99.90
19000;DHT22;9633;50.980;13.850;2024-03-02T07:45:18;9.30;99.90
19000;DHT22;9633;50.980;13.850;2024-03-02T07:46:50;9.30;99.90
19000;DHT22;9633;50.980;13.850;2024-03-02T07:48:23;9.40;99.90
19000;DHT22;9633;50.980;13.850;2024-03-02T07:49:57;9.30;99.90
19000;DHT22;9633;50.980;13.850;2024-03-02T07:51:30;9.30;99.90
19000;DHT22;9633;50.980;13.850;2024-03-02T07:53:03;9.40;99.90
19000;DHT22;9633;50.980;13.850;2024-03-02T07:54:38;9.30;99.90
19000;DHT22;9633;50.980;13.850;2024-03-02T07:56:11;9.40;99.90
19000;DHT22;9633;50.980;13.850;2024-03-02T07:57:43;9.40;99.90
19000;DHT22;9633;50.980;13.850;2024-03-02T07:59:17;9.40;99.90
19000;DHT22;9633;50.980;13.850;2024-03-02T08:00:50;9.40;99.90
19000;DHT22;9633;50.980;13.850;2024-03-02T08:02:26;9.40;99.90
19000;DHT22;9633;50.980;13.850;2024-03-02T08:04:00;9.50;99.90
19000;DHT22;9633;50.980;13.850;2024-03-02T08:05:34;9.50;99.90
19000;DHT22;9633;50.980;13.850;2024-03-02T08:07:08;9.50;99.90
19000;DHT22;9633;50.980;13.850;2024-03-02T08:08:41;9.60;99.90
19000;DHT22;9633;50.980;13.850;2024-03-02T08:10:14;9.60;99.90
19000;DHT22;9633;50.980;13.850;2024-03-02T08:11:46;9.60;99.90
19000;DHT22;9633;50.980;13.850;2024-03-02T08:13:19;9.60;99.90
19000;DHT22;9633;50.980;13.850;2024-03-02T08:14:53;9.60;99.90
19000;DHT22;9633;50.980;13.850;2024-03-02T08:16:25;9.60;99.90
19000;DHT22;9633;50.980;13.850;2024-03-02T08:17:58;9.70;99.90
19000;DHT22;9633;50.980;13.850;2024-03-02T08:19:31;9.70;99.90
19000;DHT22;9633;50.980;13.850;2024-03-02T08:21:05;9.70;99.90
19000;DHT22;9633;50.980;13.850;2024-03-02T08:22:40;9.70;99.90
19000;DHT22;9633;50.980;13.850;2024-03-02T08:24:13;9.70;99.90
19000;DHT22;9633;50.980;13.850;2024-03-02T08:25:45;9.80;99.90
19000;DHT22;9633;50.980;13.850;2024-03-02T08:27:19;9.80;99.90
19000;DHT22;9633;50.980;13.850;2024-03-02T08:28:51;9.80;99.90
19000;DHT22;9633;50.980;13.850;2024-03-02T08:30:24;9.80;99.90
19000;DHT22;9633;50.980;13.850;2024-03-02T08:31:56;9.90;99.90
19000;DHT22;9633;50.980;13.850;2024-03-02T08:33:30;9.90;99.90
19000;DHT22;9633;50.980;13.850;2024-03-02T08:35:04;10.00;99.90
19000;DHT22;9633;50.980;13.850;2024-03-02T08:36:39;9.90;99.90
19000;DHT22;9633;50.980;13.850;2024-03-02T08:38:12;9.90;99.90
19000;DHT22;9633;50.980;13.850;2024-03-02T08:39:45;9.90;99.90
19000;DHT22;9633;50.980;13.850;2024-03-02T08:41:18;10.00;99.90
19000;DHT22;9633;50.980;13.850;2024-03-02T08:42:51;10.00;99.90
19000;DHT22;9633;50.980;13.850;2024-03-02T08:44:25;10.00;99.90
19000;DHT22;9633;50.980;13.850;2024-03-02T08:45:57;10.10;99.90
19000;DHT22;9633;50.980;13.850;2024-03-02T08:47:31;10.10;99.90
19000;DHT22;9633;50.980;13.850;2024-03-02T08:49:03;10.10;99.90
19000;DHT22;9633;50.980;13.850;2024-03-02T08:50:37;10.20;99.90
19000;DHT22;9633;50.980;13.850;2024-03-02T08:52:11;10.20;99.90
19000;DHT22;9633;50.980;13.850;2024-03-02T08:53:43;10.20;99.90
19000;DHT22;9633;50.980;13.850;2024-03-02T08:55:17;10.30;99.90
19000;DHT22;9633;50.980;13.850;2024-03-02T08:56:49;10.40;99.90
19000;DHT22;9633;50.980;13.850;2024-03-02T08:58:22;10.50;99.90
19000;DHT22;9633;50.980;13.850;2024-03-02T08:59:55;10.50;99.90
19000;DHT22;9633;50.980;13.850;2024-03-02T09:01:28;10.60;99.90
19000;DHT22;9633;50.980;13.850;2024-03-02T09:03:00;10.70;99.90
19000;DHT22;9633;50.980;13.850;2024-03-02T09:04:33;10.80;99.90
19000;DHT22;9633;50.980;13.850;2024-03-02T09:06:06;10.90;99.90
19000;DHT22;9633;50.980;13.850;2024-03-02T09:07:41;11.00;99.90
19000;DHT22;9633;50.980;13.850;2024-03-02T09:09:13;11.10;99.90
19000;DHT22;9633;50.980;13.850;2024-03-02T09:10:46;11.20;99.90
19000;DHT22;9633;50.980;13.850;2024-03-02T09:12:18;11.20;99.90
19000;DHT22;9633;50.980;13.850;2024-03-02T09:13:52;11.30;99.90
19000;DHT22;9633;50.980;13.850;2024-03-02T09:15:26;11.40;99.90
19000;DHT22;9633;50.980;13.850;2024-03-02T09:16:59;11.40;99.90
19000;DHT22;9633;50.980;13.850;2024-03-02T09:18:32;11.40;99.90
19000;DHT22;9633;50.980;13.850;2024-03-02T09:20:06;11.40;99.90
19000;DHT22;9633;50.980;13.850;2024-03-02T09:21:38;11.40;99.90
19000;DHT22;9633;50.980;13.850;2024-03-02T09:23:12;11.30;99.90
19000;DHT22;9633;50.980;13.850;2024-03-02T09:24:45;11.20;99.90
19000;DHT22;9633;50.980;13.850;2024-03-02T09:26:18;11.20;99.90
19000;DHT22;9633;50.980;13.850;2024-03-02T09:27:52;11.10;99.90
19000;DHT22;9633;50.980;13.850;2024-03-02T09:29:25;11.00;99.90
19000;DHT22;9633;50.980;13.850;2024-03-02T09:30:57;10.90;99.90
19000;DHT22;9633;50.980;13.850;2024-03-02T09:32:31;10.90;99.90
19000;DHT22;9633;50.980;13.850;2024-03-02T09:34:04;10.80;99.90
19000;DHT22;9633;50.980;13.850;2024-03-02T09:35:37;10.80;99.90
19000;DHT22;9633;50.980;13.850;2024-03-02T09:37:09;10.80;99.90
19000;DHT22;9633;50.980;13.850;2024-03-02T09:38:44;10.70;99.90
19000;DHT22;9633;50.980;13.850;2024-03-02T09:40:16;10.80;99.90
19000;DHT22;9633;50.980;13.850;2024-03-02T09:41:49;10.70;99.90
19000;DHT22;9633;50.980;13.850;2024-03-02T09:43:22;10.60;99.90
19000;DHT22;9633;50.980;13.850;2024-03-02T09:44:55;10.60;99.90
19000;DHT22;9633;50.980;13.850;2024-03-02T09:46:28;10.50;99.90
19000;DHT22;9633;50.980;13.850;2024-03-02T09:48:02;10.50;99.90
19000;DHT22;9633;50.980;13.850;2024-03-02T09:49:35;10.50;99.90
19000;DHT22;9633;50.980;13.850;2024-03-02T09:51:11;10.50;99.90
19000;DHT22;9633;50.980;13.850;2024-03-02T09:52:48;10.50;99.90
19000;DHT22;9633;50.980;13.850;2024-03-02T09:54:22;10.50;99.90
19000;DHT22;9633;50.980;13.850;2024-03-02T09:55:55;10.60;99.90
19000;DHT22;9633;50.980;13.850;2024-03-02T09:57:28;10.50;99.90
19000;DHT22;9633;50.980;13.850;2024-03-02T09:59:00;10.50;99.90
19000;DHT22;9633;50.980;13.850;2024-03-02T10:00:33;10.60;99.90